createdAt,value
2019-05-26T00:01:23.882Z,11.08
2019-05-26T00:04:27.530Z,13.90
2019-05-26T00:07:31.267Z,12.55
2019-05-26T00:10:34.864Z,15.13
2019-05-26T00:13:38.409Z,13.28
2019-05-26T00:16:42.042Z,13.53
2019-05-26T00:19:45.563Z,13.10
2019-05-26T00:22:49.165Z,13.05
2019-05-26T00:25:52.730Z,11.08
2019-05-26T00:28:56.300Z,14.45
2019-05-26T00:31:59.864Z,11.30
2019-05-26T00:35:04.506Z,13.70
2019-05-26T00:38:08.054Z,17.02
2019-05-26T00:41:11.713Z,12.95
2019-05-26T00:44:15.321Z,16.40
2019-05-26T00:47:18.894Z,17.75
2019-05-26T00:50:24.071Z,18.73
2019-05-26T00:53:27.774Z,14.05
2019-05-26T00:56:31.425Z,18.35
2019-05-26T00:59:34.979Z,13.90
2019-05-26T01:02:38.736Z,16.77
2019-05-26T01:05:42.896Z,21.20
2019-05-26T01:08:46.448Z,14.25
2019-05-26T01:11:50.029Z,17.87
2019-05-26T01:14:53.571Z,15.88
2019-05-26T01:17:58.905Z,15.50
2019-05-26T01:21:02.453Z,15.68
2019-05-26T01:24:06.086Z,18.27
2019-05-26T01:27:09.657Z,19.32
2019-05-26T01:30:13.649Z,17.25
2019-05-26T01:33:17.333Z,20.30
2019-05-26T01:36:21.123Z,18.95
2019-05-26T01:39:24.784Z,19.05
2019-05-26T01:42:28.375Z,17.98
2019-05-26T01:45:31.995Z,18.05
2019-05-26T01:48:35.639Z,16.17
2019-05-26T01:51:39.211Z,19.45
2019-05-26T01:54:42.804Z,17.10
2019-05-26T01:57:46.366Z,23.15
2019-05-26T02:00:50.026Z,15.88
2019-05-26T02:03:53.632Z,20.15
2019-05-26T02:06:57.214Z,25.02
2019-05-26T02:10:00.835Z,19.00
2019-05-26T02:13:04.671Z,20.65
2019-05-26T02:16:08.176Z,21.85
2019-05-26T02:19:11.833Z,17.75
2019-05-26T02:22:19.059Z,23.00
2019-05-26T02:25:23.093Z,24.05
2019-05-26T02:28:26.599Z,20.50
2019-05-26T02:31:30.189Z,21.17
2019-05-26T02:34:33.740Z,24.25
2019-05-26T02:37:37.413Z,23.07
2019-05-26T02:40:40.944Z,20.37
2019-05-26T02:43:46.218Z,26.05
2019-05-26T02:46:49.790Z,23.32
2019-05-26T02:49:54.965Z,20.17
2019-05-26T02:52:58.510Z,21.27
2019-05-26T02:56:02.319Z,27.55
2019-05-26T02:59:05.947Z,23.47
2019-05-26T03:02:11.087Z,30.27
2019-05-26T03:05:15.305Z,19.67
2019-05-26T03:08:18.842Z,21.10
2019-05-26T03:11:24.089Z,22.25
2019-05-26T03:14:29.819Z,28.05
2019-05-26T03:17:35.468Z,27.50
2019-05-26T03:20:40.710Z,25.05
2019-05-26T03:23:47.213Z,22.80
2019-05-26T03:26:50.847Z,22.35
2019-05-26T03:29:54.560Z,23.12
2019-05-26T03:32:58.051Z,24.40
2019-05-26T03:36:01.612Z,23.90
2019-05-26T03:39:08.480Z,30.45
2019-05-26T03:42:12.184Z,25.30
2019-05-26T03:45:27.512Z,23.25
2019-05-26T03:48:31.159Z,20.75
2019-05-26T03:51:34.934Z,27.10
2019-05-26T03:54:40.138Z,20.80
2019-05-26T03:57:45.268Z,25.37
2019-05-26T04:00:53.376Z,21.20
2019-05-26T04:03:56.934Z,23.05
2019-05-26T04:07:00.467Z,23.10
2019-05-26T04:10:06.504Z,26.40
2019-05-26T04:13:11.740Z,25.60
2019-05-26T04:16:15.277Z,24.98
2019-05-26T04:19:26.161Z,25.62
2019-05-26T04:22:29.703Z,26.20
2019-05-26T04:25:34.791Z,22.13
2019-05-26T04:28:38.508Z,24.43
2019-05-26T04:31:42.128Z,21.80
2019-05-26T04:34:47.336Z,21.80
2019-05-26T04:37:50.907Z,26.02
2019-05-26T04:40:54.441Z,18.00
2019-05-26T04:43:58.021Z,22.80
2019-05-26T04:47:01.713Z,22.35
2019-05-26T04:50:06.562Z,26.48
2019-05-26T04:53:10.154Z,18.02
2019-05-26T04:56:13.802Z,20.40
2019-05-26T04:59:17.392Z,18.90
2019-05-26T05:02:20.974Z,17.80
2019-05-26T05:05:24.674Z,18.27
2019-05-26T05:08:28.159Z,21.37
2019-05-26T05:11:31.939Z,19.73
2019-05-26T05:14:35.520Z,24.95
2019-05-26T05:17:39.246Z,19.92
2019-05-26T05:20:42.892Z,20.62
2019-05-26T05:23:46.460Z,17.40
2019-05-26T05:26:50.039Z,22.07
2019-05-26T05:29:53.620Z,16.37
2019-05-26T05:32:57.303Z,19.55
2019-05-26T05:36:00.869Z,19.80
2019-05-26T05:39:06.945Z,21.42
2019-05-26T05:42:10.614Z,18.73
2019-05-26T05:45:15.508Z,18.02
2019-05-26T05:48:19.166Z,17.40
2019-05-26T05:51:22.799Z,18.05
2019-05-26T05:54:26.470Z,15.95
2019-05-26T05:57:30.103Z,15.28
2019-05-26T06:00:33.765Z,13.43
2019-05-26T06:03:37.406Z,16.55
2019-05-26T06:06:41.077Z,18.62
2019-05-26T06:09:44.694Z,16.30
2019-05-26T06:12:48.372Z,14.05
2019-05-26T06:15:51.992Z,13.55
2019-05-26T06:18:55.637Z,11.43
2019-05-26T06:21:59.330Z,15.65
2019-05-26T06:25:03.025Z,12.18
2019-05-26T06:28:06.660Z,14.20
2019-05-26T06:31:10.285Z,13.55
2019-05-26T06:34:13.959Z,13.68
2019-05-26T06:37:17.605Z,14.55
2019-05-26T06:40:21.329Z,13.40
2019-05-26T06:43:25.039Z,14.68
2019-05-26T06:46:28.737Z,15.85
2019-05-26T06:49:32.391Z,10.80
2019-05-26T06:52:36.003Z,10.93
2019-05-26T06:55:39.775Z,9.33
2019-05-26T06:58:43.397Z,11.85
2019-05-26T07:01:47.028Z,14.80
2019-05-26T07:04:50.655Z,17.23
2019-05-26T07:07:54.308Z,10.10
2019-05-26T07:10:57.927Z,9.98
2019-05-26T07:14:01.574Z,16.23
2019-05-26T07:17:05.348Z,13.25
2019-05-26T07:20:09.573Z,10.72
2019-05-26T07:23:13.412Z,13.38
2019-05-26T07:26:17.134Z,13.48
2019-05-26T07:29:20.774Z,9.25
2019-05-26T07:32:24.435Z,28.30
2019-05-26T07:35:28.155Z,12.70
2019-05-26T07:38:31.808Z,10.10
2019-05-26T07:41:35.477Z,9.85
2019-05-26T07:44:39.079Z,9.25
2019-05-26T07:47:42.755Z,10.55
2019-05-26T07:50:46.372Z,8.53
2019-05-26T07:53:50.012Z,8.53
2019-05-26T07:56:53.707Z,9.30
2019-05-26T07:59:57.367Z,11.43
2019-05-26T08:03:00.982Z,7.92
2019-05-26T08:06:04.702Z,5.75
2019-05-26T08:09:09.160Z,8.53
2019-05-26T08:12:25.961Z,6.45
2019-05-26T08:15:18.395Z,4.53
2019-05-26T08:18:22.137Z,7.15
2019-05-26T08:21:25.767Z,6.85
2019-05-26T08:24:29.403Z,5.83
2019-05-26T08:27:32.997Z,5.97
2019-05-26T08:30:36.668Z,5.08
2019-05-26T08:33:41.808Z,5.80
2019-05-26T08:36:45.457Z,6.12
2019-05-26T08:39:50.663Z,4.80
2019-05-26T08:42:54.362Z,5.62
2019-05-26T08:45:58.019Z,5.05
2019-05-26T08:49:01.627Z,6.00
2019-05-26T08:52:05.541Z,6.50
2019-05-26T08:55:09.230Z,5.40
2019-05-26T08:58:12.868Z,8.78
2019-05-26T09:01:16.610Z,5.90
2019-05-26T09:04:20.422Z,6.72
2019-05-26T09:07:24.108Z,8.00
2019-05-26T09:13:58.982Z,8.50
2019-05-26T09:17:02.715Z,8.15
2019-05-26T09:20:20.676Z,7.50
2019-05-26T09:23:24.365Z,12.55
2019-05-26T09:26:33.084Z,8.55
2019-05-26T09:29:36.773Z,13.28
2019-05-26T09:32:40.400Z,10.15
2019-05-26T09:35:44.251Z,7.37
2019-05-26T09:38:47.862Z,7.87
2019-05-26T09:42:07.110Z,8.88
2019-05-26T09:45:12.671Z,7.55
2019-05-26T09:48:16.594Z,7.42
2019-05-26T09:51:20.292Z,6.60
2019-05-26T09:54:28.664Z,8.95
2019-05-26T09:57:32.296Z,7.97
2019-05-26T10:00:44.236Z,8.73
2019-05-26T10:03:51.058Z,4.60
2019-05-26T10:06:54.774Z,7.03
2019-05-26T10:09:58.482Z,6.45
2019-05-26T10:13:02.127Z,5.03
2019-05-26T10:16:05.797Z,7.10
2019-05-26T10:19:09.641Z,5.95
2019-05-26T10:22:13.259Z,6.42
2019-05-26T10:25:16.975Z,5.95
2019-05-26T10:28:20.607Z,4.28
2019-05-26T10:31:24.279Z,5.45
2019-05-26T10:34:27.909Z,8.00
2019-05-26T10:37:31.542Z,6.75
2019-05-26T10:40:35.246Z,17.37
2019-05-26T10:43:47.413Z,8.58
2019-05-26T10:46:44.252Z,6.75
2019-05-26T10:49:47.931Z,6.47
2019-05-26T10:52:58.650Z,5.17
2019-05-26T10:56:02.306Z,9.63
2019-05-26T10:59:05.990Z,4.97
2019-05-26T11:02:09.651Z,6.75
2019-05-26T11:05:15.234Z,5.87
2019-05-26T11:08:18.873Z,5.58
2019-05-26T11:11:22.508Z,6.53
2019-05-26T11:14:26.146Z,5.67
2019-05-26T11:17:29.816Z,7.20
2019-05-26T11:20:33.432Z,3.92
2019-05-26T11:23:37.094Z,8.28
2019-05-26T11:26:40.716Z,8.35
2019-05-26T11:29:44.839Z,5.85
2019-05-26T11:32:54.359Z,7.22
2019-05-26T11:40:04.977Z,6.05
2019-05-26T11:47:12.471Z,3.20
2019-05-26T11:50:26.903Z,3.75
2019-05-26T11:54:20.512Z,5.15
2019-05-26T12:15:16.225Z,4.37
2019-05-26T12:18:20.045Z,1.85
2019-05-26T12:21:24.827Z,4.12
2019-05-26T12:24:28.962Z,8.15
2019-05-26T12:27:35.001Z,4.72
2019-05-26T12:30:39.751Z,2.98
2019-05-26T12:33:44.789Z,4.40
2019-05-26T12:36:50.965Z,3.00
2019-05-26T12:39:57.399Z,6.08
2019-05-26T12:43:03.827Z,3.98
2019-05-26T12:46:10.916Z,4.80
2019-05-26T13:10:30.632Z,3.08
2019-05-26T13:13:34.276Z,5.17
2019-05-26T13:16:37.950Z,4.97
2019-05-26T13:19:41.628Z,3.40
2019-05-26T13:22:45.299Z,8.53
2019-05-26T13:25:50.592Z,3.65
2019-05-26T13:28:54.237Z,4.05
2019-05-26T13:31:59.101Z,5.78
2019-05-26T13:35:02.689Z,3.70
2019-05-26T13:38:06.368Z,6.22
2019-05-26T13:41:09.996Z,3.30
2019-05-26T13:44:13.714Z,2.77
2019-05-26T13:47:25.643Z,4.97
2019-05-26T13:50:23.479Z,5.05
2019-05-26T13:53:28.619Z,3.22
2019-05-26T13:56:32.311Z,2.02
2019-05-26T13:59:35.965Z,6.42
2019-05-26T14:02:40.158Z,8.33
2019-05-26T14:05:43.882Z,9.80
2019-05-26T14:08:47.623Z,2.33
2019-05-26T14:11:51.269Z,6.25
2019-05-26T14:14:56.088Z,4.50
2019-05-26T14:18:00.118Z,6.03
2019-05-26T14:21:03.881Z,5.90
2019-05-26T14:24:09.224Z,2.80
2019-05-26T14:27:12.895Z,11.40
2019-05-26T14:30:16.897Z,8.40
2019-05-26T14:33:20.550Z,3.10
2019-05-26T14:36:23.279Z,9.65
2019-05-26T14:39:26.852Z,16.37
2019-05-26T14:42:30.544Z,2.92
2019-05-26T14:45:34.413Z,2.37
2019-05-26T14:48:38.109Z,3.45
2019-05-26T14:51:41.932Z,3.72
2019-05-26T14:54:45.624Z,3.20
2019-05-26T14:57:49.313Z,7.33
2019-05-26T15:00:55.046Z,2.45
2019-05-26T15:03:58.360Z,3.27
2019-05-26T15:07:01.977Z,5.40
2019-05-26T15:10:08.878Z,3.60
2019-05-26T15:13:12.513Z,5.50
2019-05-26T15:16:16.187Z,4.97
2019-05-26T15:19:19.926Z,4.08
2019-05-26T15:22:23.651Z,3.72
2019-05-26T15:25:27.262Z,2.58
2019-05-26T15:28:31.095Z,4.05
2019-05-26T15:31:34.697Z,5.28
2019-05-26T15:34:38.422Z,1.95
2019-05-26T15:37:42.163Z,3.05
2019-05-26T15:40:45.877Z,2.33
2019-05-26T15:43:49.526Z,2.92
2019-05-26T15:46:53.208Z,3.00
2019-05-26T15:49:56.960Z,15.68
2019-05-26T15:53:00.675Z,2.75
2019-05-26T15:56:04.444Z,2.85
2019-05-26T15:59:08.083Z,2.98
2019-05-26T16:02:11.815Z,1.47
2019-05-26T16:05:15.786Z,2.25
2019-05-26T16:08:19.439Z,4.42
2019-05-26T16:11:23.118Z,4.42
2019-05-26T16:14:26.857Z,4.03
2019-05-26T16:17:30.504Z,1.00
2019-05-26T16:20:34.158Z,4.70
2019-05-26T16:23:38.764Z,4.62
2019-05-26T16:26:42.441Z,6.58
2019-05-26T16:29:46.829Z,1.35
2019-05-26T16:32:50.492Z,5.17
2019-05-26T16:35:55.635Z,4.22
2019-05-26T16:38:59.501Z,2.30
2019-05-26T16:42:03.184Z,1.98
2019-05-26T16:45:07.942Z,1.90
2019-05-26T16:48:11.675Z,1.27
2019-05-26T16:51:16.248Z,7.10
2019-05-26T16:54:20.021Z,5.00
2019-05-26T16:57:23.669Z,2.05
2019-05-26T17:00:27.435Z,3.17
2019-05-26T17:03:41.854Z,7.10
2019-05-26T17:06:48.586Z,2.12
2019-05-26T17:09:52.204Z,3.37
2019-05-26T17:12:55.860Z,3.55
2019-05-26T17:15:59.582Z,2.87
2019-05-26T17:19:03.347Z,4.17
2019-05-26T17:22:06.940Z,4.30
2019-05-26T17:25:11.230Z,5.28
2019-05-26T17:28:14.928Z,4.25
2019-05-26T17:31:18.705Z,3.27
2019-05-26T17:34:22.559Z,5.70
2019-05-26T17:37:26.219Z,4.85
2019-05-26T17:40:29.897Z,1.72
2019-05-26T17:43:33.534Z,2.70
2019-05-26T17:46:37.389Z,2.08
2019-05-26T17:49:41.139Z,2.72
2019-05-26T17:52:44.769Z,2.75
2019-05-26T17:55:48.433Z,2.92
2019-05-26T17:58:52.159Z,7.25
2019-05-26T18:01:57.374Z,3.27
2019-05-26T18:05:01.182Z,6.92
2019-05-26T18:08:05.205Z,3.45
2019-05-26T18:11:08.953Z,2.77
2019-05-26T18:14:12.642Z,4.47
2019-05-26T18:17:49.035Z,1.72
2019-05-26T18:20:52.692Z,5.22
2019-05-26T18:23:57.411Z,3.67
2019-05-26T18:27:03.118Z,5.78
2019-05-26T18:30:11.450Z,2.42
2019-05-26T18:33:28.992Z,5.05
2019-05-26T18:36:38.305Z,2.70
2019-05-26T18:39:42.154Z,2.95
2019-05-26T18:42:46.049Z,4.10
2019-05-26T18:45:49.826Z,2.62
2019-05-26T18:48:53.669Z,2.70
2019-05-26T18:51:57.523Z,2.25
2019-05-26T18:55:01.245Z,2.62
2019-05-26T18:58:06.885Z,3.80
2019-05-26T19:01:12.047Z,5.83
2019-05-26T19:04:16.370Z,4.12
2019-05-26T19:07:20.163Z,2.83
2019-05-26T19:10:24.771Z,6.87
2019-05-26T19:13:28.509Z,4.75
2019-05-26T19:16:32.153Z,5.15
2019-05-26T19:19:35.920Z,6.33
2019-05-26T19:22:39.713Z,3.50
2019-05-26T19:25:43.477Z,2.05
2019-05-26T19:28:47.212Z,4.58
2019-05-26T19:31:50.832Z,3.30
2019-05-26T19:34:54.740Z,6.55
2019-05-26T19:37:58.410Z,4.55
2019-05-26T19:41:02.053Z,6.83
2019-05-26T19:44:05.837Z,6.70
2019-05-26T19:47:09.583Z,6.05
2019-05-26T19:50:13.419Z,4.35
2019-05-26T19:53:17.146Z,2.67
2019-05-26T19:56:21.100Z,5.97
2019-05-26T19:59:27.771Z,4.22
2019-05-26T20:02:31.547Z,3.10
2019-05-26T20:05:35.279Z,4.47
2019-05-26T20:08:39.031Z,5.20
2019-05-26T20:11:42.761Z,3.35
2019-05-26T20:14:46.850Z,6.05
2019-05-26T20:17:51.154Z,3.37
2019-05-26T20:20:57.106Z,3.05
2019-05-26T20:24:04.731Z,4.20
2019-05-26T20:27:08.473Z,3.75
2019-05-26T20:30:12.759Z,4.80
2019-05-26T20:33:16.482Z,2.77
2019-05-26T20:36:20.108Z,5.97
2019-05-26T20:39:23.879Z,3.92
2019-05-26T20:42:27.690Z,6.28
2019-05-26T20:45:31.436Z,5.58
2019-05-26T20:48:35.211Z,6.55
2019-05-26T20:51:38.952Z,5.42
2019-05-26T20:54:51.597Z,3.27
2019-05-26T20:57:55.196Z,4.00
2019-05-26T21:00:58.856Z,4.90
2019-05-26T21:04:02.618Z,5.25
2019-05-26T21:07:06.315Z,6.00
2019-05-26T21:10:10.203Z,4.83
2019-05-26T21:13:13.841Z,6.97
2019-05-26T21:16:17.499Z,7.60
2019-05-26T21:19:22.389Z,5.75
2019-05-26T21:22:26.091Z,5.90
2019-05-26T21:25:31.512Z,4.35
2019-05-26T21:28:35.301Z,7.05
2019-05-26T21:31:38.922Z,7.08
2019-05-26T21:34:42.591Z,7.05
2019-05-26T21:37:46.401Z,11.38
2019-05-26T21:40:50.263Z,7.53
2019-05-26T21:43:53.924Z,6.30
2019-05-26T21:46:57.577Z,9.30
2019-05-26T21:50:01.275Z,13.60
2019-05-26T21:53:05.074Z,7.45
2019-05-26T21:56:08.763Z,14.18
2019-05-26T21:59:12.482Z,8.10
2019-05-26T22:02:19.110Z,11.22
2019-05-26T22:05:22.288Z,18.50
2019-05-26T22:08:26.054Z,17.20
2019-05-26T22:11:32.721Z,14.03
2019-05-26T22:14:36.479Z,13.00
2019-05-26T22:17:40.132Z,17.52
2019-05-26T22:20:43.861Z,21.33
2019-05-26T22:23:47.653Z,10.70
2019-05-26T22:26:51.463Z,13.70
2019-05-26T22:29:55.307Z,9.68
2019-05-26T22:32:59.008Z,15.00
2019-05-26T22:36:02.678Z,18.40
2019-05-26T22:39:07.428Z,15.78
2019-05-26T22:42:11.186Z,18.35
2019-05-26T22:45:15.276Z,12.45
2019-05-26T22:48:19.018Z,14.85
2019-05-26T22:51:22.783Z,14.47
2019-05-26T22:54:26.456Z,14.18
2019-05-26T22:57:30.170Z,14.87
2019-05-26T23:00:34.039Z,9.23
2019-05-26T23:03:39.930Z,17.20
2019-05-26T23:06:43.612Z,14.73
2019-05-26T23:09:47.328Z,11.83
2019-05-26T23:12:52.555Z,12.65
2019-05-26T23:15:56.283Z,12.33
2019-05-26T23:18:59.955Z,16.42
2019-05-26T23:22:03.696Z,19.37
2019-05-26T23:25:08.713Z,15.63
2019-05-26T23:28:12.395Z,13.90
2019-05-26T23:31:16.172Z,22.75
2019-05-26T23:34:19.887Z,14.75
2019-05-26T23:37:23.587Z,14.85
2019-05-26T23:40:27.366Z,12.28
2019-05-26T23:43:31.049Z,12.65
2019-05-26T23:46:34.744Z,13.83
2019-05-26T23:49:38.394Z,15.00
2019-05-26T23:52:42.091Z,12.15
2019-05-26T23:55:47.041Z,15.23
2019-05-26T23:58:50.784Z,12.10
